Time;durP1;ratioP1;P1;durP2;ratioP2;P2;SDS_P1;SDS_P2;PMS_P1;PMS_P2;Temp;Humidity;BMP_temperature;BMP_pressure;BME280_temperature;BME280_humidity;BME280_pressure;Samples;Min_cycle;Max_cycle;Signal;HPM_P1;HPM_P2
2022/04/04 00:00:53;;;;;;;;;16.25;15.25;;;;;7.14;50.06;101677.56;5056214;28;45314;-51
2022/04/04 00:03:19;;;;;;;;;16.00;16.00;;;;;7.13;49.50;101678.59;5056364;28;45369;-50
2022/04/04 00:05:44;;;;;;;;;14.25;14.25;;;;;7.07;49.63;101676.53;5056493;28;45370;-49
2022/04/04 00:08:10;;;;;;;;;11.50;11.00;;;;;7.11;49.44;101688.84;5056540;28;45471;-46
2022/04/04 00:10:36;;;;;;;;;10.00;10.00;;;;;7.06;49.79;101680.28;5056123;28;46024;-47
2022/04/04 00:13:01;;;;;;;;;15.00;14.75;;;;;7.03;49.85;101683.31;5056107;28;45311;-48
2022/04/04 00:15:27;;;;;;;;;19.00;17.50;;;;;6.96;50.32;101682.28;5056488;28;45617;-48
2022/04/04 00:17:55;;;;;;;;;12.40;11.40;;;;;6.96;50.20;101682.28;5056270;28;45331;-47
2022/04/04 00:20:20;;;;;;;;;17.80;15.40;;;;;6.93;49.76;101686.19;5056300;28;45556;-47
2022/04/04 00:22:46;;;;;;;;;16.50;16.50;;;;;6.93;50.63;101685.34;5054552;28;45469;-49
2022/04/04 00:25:11;;;;;;;;;14.50;13.00;;;;;6.92;50.44;101676.28;5055635;28;45347;-53
2022/04/04 00:27:37;;;;;;;;;15.00;12.25;;;;;6.90;50.65;101670.16;5056024;28;45520;-49
2022/04/04 00:30:03;;;;;;;;;15.75;15.00;;;;;6.89;50.53;101682.09;5056151;28;45463;-48
2022/04/04 00:32:29;;;;;;;;;13.60;12.60;;;;;6.87;50.72;101667.75;5055781;28;45315;-48
2022/04/04 00:34:54;;;;;;;;;20.25;18.25;;;;;6.85;50.91;101670.66;5055797;28;45365;-48
2022/04/04 00:37:20;;;;;;;;;19.00;14.25;;;;;6.85;50.57;101667.06;5056368;28;45353;-48
2022/04/04 00:39:46;;;;;;;;;14.00;14.00;;;;;6.86;50.74;101666.03;5055782;28;45368;-48
2022/04/04 00:42:15;;;;;;;;;9.25;9.25;;;;;6.86;50.64;101666.03;5071384;28;45251;-50
2022/04/04 00:44:41;;;;;;;;;18.60;15.20;;;;;6.78;50.27;101647.78;5056077;28;45464;-49
2022/04/04 00:47:07;;;;;;;;;13.75;13.00;;;;;6.58;49.90;101615.28;5088349;27;45431;-47
2022/04/04 00:49:33;;;;;;;;;11.60;11.60;;;;;6.86;50.33;101666.03;5054560;28;45638;-47
2022/04/04 00:51:58;;;;;;;;;14.50;12.50;;;;;6.82;50.41;101654.59;5055722;28;45303;-52
2022/04/04 00:54:24;;;;;;;;;13.00;9.00;;;;;6.75;50.17;101648.94;5055919;28;45420;-48
2022/04/04 00:56:49;;;;;;;;;12.25;11.50;;;;;6.61;50.34;101614.09;5071277;28;45387;-50
2022/04/04 00:59:16;;;;;;;;;8.00;8.00;;;;;6.81;49.62;101650.16;5036935;28;47609;-48
2022/04/04 01:01:42;;;;;;;;;11.00;10.60;;;;;6.80;49.99;101659.38;5071063;28;45360;-49
2022/04/04 01:04:08;;;;;;;;;10.50;10.50;;;;;6.75;49.87;101659.00;5055576;28;45409;-47
2022/04/04 01:06:35;;;;;;;;;13.00;10.00;;;;;6.42;49.54;101607.91;5055548;28;45384;-48
2022/04/04 01:09:02;;;;;;;;;14.80;11.00;;;;;6.72;49.82;101660.19;5036932;28;47121;-46
2022/04/04 01:11:28;;;;;;;;;12.20;11.00;;;;;6.48;49.10;101611.81;5055017;28;45413;-47
2022/04/04 01:13:53;;;;;;;;;10.75;10.75;;;;;6.67;49.50;101658.97;5055398;28;45467;-48
2022/04/04 01:16:19;;;;;;;;;14.75;13.75;;;;;6.64;49.51;101652.84;5055439;28;45557;-50
2022/04/04 01:18:44;;;;;;;;;9.00;9.00;;;;;6.61;49.36;101646.81;5037049;28;46759;-46
2022/04/04 01:21:10;;;;;;;;;12.50;9.50;;;;;6.59;48.72;101646.13;5023445;28;46078;-49
2022/04/04 01:23:40;;;;;;;;;11.75;11.75;;;;;6.56;49.59;101644.59;5054675;28;45412;-51
2022/04/04 01:26:09;;;;;;;;;10.40;10.40;;;;;6.60;49.64;101648.72;5037560;28;45413;-47
2022/04/04 01:28:35;;;;;;;;;8.60;8.60;;;;;6.54;49.11;101649.38;5053368;28;47341;-47
2022/04/04 01:31:00;;;;;;;;;6.00;5.00;;;;;6.51;50.01;101646.94;5055157;28;45329;-52
2022/04/04 01:33:26;;;;;;;;;10.50;10.50;;;;;6.46;49.50;101644.72;5037139;28;45342;-50
2022/04/04 01:35:52;;;;;;;;;13.00;10.00;;;;;6.47;49.84;101640.97;5037448;28;45326;-49
2022/04/04 01:38:18;;;;;;;;;9.60;9.60;;;;;6.49;49.92;101638.94;5057136;28;47423;-52
2022/04/04 01:40:43;;;;;;;;;13.50;10.25;;;;;6.53;49.26;101641.34;5057221;28;45529;-49
2022/04/04 01:43:09;;;;;;;;;11.25;9.50;;;;;6.55;49.33;101634.69;5058348;28;45428;-52
2022/04/04 01:48:18;;;;;;;;;7.00;6.20;;;;;6.45;50.05;101621.19;5058079;28;45817;-49
2022/04/04 01:50:44;;;;;;;;;6.25;6.25;;;;;6.44;49.47;101618.63;5058505;28;45389;-51
2022/04/04 01:53:29;;;;;;;;;13.00;10.00;;;;;6.48;49.13;101623.59;5058186;28;45675;-49
2022/04/04 01:55:56;;;;;;;;;9.80;9.80;;;;;6.17;49.14;101580.50;5058527;28;45615;-50
2022/04/04 01:58:23;;;;;;;;;8.40;8.40;;;;;6.34;49.49;101611.44;5051722;28;45799;-47
2022/04/04 02:00:49;;;;;;;;;9.20;9.20;;;;;6.27;49.14;101604.03;5073951;27;45354;-47
2022/04/04 02:03:14;;;;;;;;;11.25;9.00;;;;;6.36;49.99;101619.44;5057193;28;45350;-48
2022/04/04 02:05:40;;;;;;;;;6.00;5.00;;;;;6.36;49.66;101630.34;5058515;28;45248;-48
2022/04/04 02:08:06;;;;;;;;;10.00;7.00;;;;;6.33;49.50;101619.75;5058439;28;46210;-49
2022/04/04 02:10:31;;;;;;;;;10.50;10.50;;;;;6.33;48.87;101612.44;5058142;28;45871;-51
2022/04/04 02:12:57;;;;;;;;;9.00;7.25;;;;;6.31;49.28;101616.34;5057218;28;45693;-48
2022/04/04 02:15:23;;;;;;;;;8.00;8.00;;;;;6.34;48.79;101613.28;5074076;28;45487;-48
2022/04/04 02:17:50;;;;;;;;;6.00;5.75;;;;;6.29;49.32;101605.59;5090615;27;45702;-49
2022/04/04 02:20:15;;;;;;;;;13.60;9.00;;;;;6.28;49.11;101616.66;5090569;27;45444;-49
2022/04/04 02:22:41;;;;;;;;;8.75;6.75;;;;;6.28;49.36;101600.28;5058056;28;45386;-53
2022/04/04 02:25:07;;;;;;;;;6.00;6.00;;;;;6.26;49.33;101600.47;5058211;28;45488;-53
2022/04/04 02:27:33;;;;;;;;;8.80;5.00;;;;;6.22;48.92;101593.63;5056467;28;47337;-48
2022/04/04 02:29:58;;;;;;;;;6.00;6.00;;;;;6.20;49.66;101593.78;5057999;28;45274;-49
2022/04/04 02:32:23;;;;;;;;;7.50;6.25;;;;;6.21;49.35;101598.25;5058204;28;45280;-46
2022/04/04 02:34:50;;;;;;;;;7.25;6.25;;;;;5.86;49.23;101542.81;5058074;28;45535;-48
2022/04/04 02:37:16;;;;;;;;;13.40;8.20;;;;;6.22;49.12;101604.53;5057597;28;45926;-52
2022/04/04 02:39:42;;;;;;;;;9.40;8.20;;;;;6.00;49.62;101567.75;5057389;28;45429;-48
2022/04/04 02:42:07;;;;;;;;;7.50;7.25;;;;;6.14;49.36;101599.03;5057484;28;45380;-47
2022/04/04 02:44:33;;;;;;;;;9.00;7.25;;;;;5.75;49.45;101543.06;5057835;27;45613;-47
2022/04/04 02:46:59;;;;;;;;;11.20;9.60;;;;;5.96;50.16;101595.34;5057244;28;46113;-46
2022/04/04 02:49:25;;;;;;;;;9.25;6.75;;;;;5.97;49.64;101588.88;5055829;28;45885;-47
2022/04/04 02:51:52;;;;;;;;;10.50;10.50;;;;;6.01;50.48;101586.66;5073047;28;45310;-47
2022/04/04 02:54:17;;;;;;;;;9.60;9.00;;;;;6.05;50.53;101587.22;5057551;28;45373;-47
2022/04/04 02:56:43;;;;;;;;;7.50;6.25;;;;;6.00;49.43;101576.78;5056918;28;45572;-49
2022/04/04 02:59:09;;;;;;;;;12.25;10.00;;;;;5.93;49.68;101583.91;5057215;28;45319;-50
2022/04/04 03:01:35;;;;;;;;;9.00;7.00;;;;;5.96;49.92;101587.16;5056903;28;45333;-47
2022/04/04 03:04:02;;;;;;;;;14.20;10.40;;;;;5.95;50.50;101584.59;5057217;28;45272;-53
2022/04/04 03:06:28;;;;;;;;;6.40;6.40;;;;;5.84;49.97;101570.19;5072645;28;46693;-50
2022/04/04 03:08:54;;;;;;;;;10.00;10.00;;;;;5.97;49.86;101583.41;5055577;28;45408;-48
2022/04/04 03:11:19;;;;;;;;;7.75;7.25;;;;;5.99;49.87;101579.66;5057047;28;45457;-49
2022/04/04 03:13:45;;;;;;;;;10.00;7.50;;;;;6.00;50.06;101578.66;5057173;28;45438;-48
2022/04/04 03:16:10;;;;;;;;;14.00;10.00;;;;;5.71;49.96;101545.25;5056829;28;45488;-48
2022/04/04 03:18:37;;;;;;;;;12.00;12.00;;;;;5.76;50.59;101547.53;5072775;28;45889;-47
2022/04/04 03:21:03;;;;;;;;;10.00;10.00;;;;;5.83;50.36;101563.06;5057288;28;45536;-46
2022/04/04 03:23:29;;;;;;;;;13.40;11.00;;;;;5.91;50.52;101573.16;5038940;28;45377;-47
2022/04/04 03:25:54;;;;;;;;;11.00;10.50;;;;;5.89;50.87;101571.59;5056544;28;46412;-47
2022/04/04 03:28:20;;;;;;;;;8.75;7.00;;;;;5.83;50.71;101562.22;5055272;28;45659;-48
2022/04/04 03:30:46;;;;;;;;;15.00;11.50;;;;;5.76;51.43;101550.25;5055952;28;45438;-49
2022/04/04 03:33:11;;;;;;;;;12.50;10.75;;;;;5.86;50.97;101567.31;5057159;28;45736;-48
2022/04/04 03:35:37;;;;;;;;;14.00;11.75;;;;;5.79;51.01;101556.22;5056734;28;46236;-47
2022/04/04 03:38:02;;;;;;;;;8.75;8.75;;;;;5.75;51.74;101556.69;5056253;28;45488;-48
2022/04/04 03:40:28;;;;;;;;;9.50;9.00;;;;;5.75;51.80;101557.56;5055297;28;45719;-48
2022/04/04 03:42:55;;;;;;;;;15.75;12.75;;;;;5.76;51.18;101551.09;5056880;28;45596;-49
2022/04/04 03:45:21;;;;;;;;;11.00;11.00;;;;;5.56;50.87;101512.31;5071832;28;47804;-51
2022/04/04 03:47:46;;;;;;;;;17.25;12.00;;;;;5.77;50.26;101550.06;5072027;28;45421;-49
2022/04/04 03:50:12;;;;;;;;;10.25;10.25;;;;;5.78;50.79;101553.66;5056304;28;45466;-48
2022/04/04 03:52:39;;;;;;;;;12.75;12.00;;;;;5.77;51.24;101546.50;5056704;28;45639;-52
2022/04/04 03:55:05;;;;;;;;;14.40;12.20;;;;;5.74;50.56;101541.38;5071626;28;45625;-48
2022/04/04 03:57:31;;;;;;;;;13.60;12.80;;;;;5.67;50.80;101524.81;5056115;28;45347;-48
2022/04/04 03:59:57;;;;;;;;;15.75;15.75;;;;;5.77;51.18;101532.88;5055174;28;45882;-53
2022/04/04 04:02:22;;;;;;;;;14.00;12.25;;;;;5.75;50.71;101532.16;5056558;28;45429;-48
2022/04/04 04:04:47;;;;;;;;;14.00;13.25;;;;;5.64;50.40;101531.44;5056027;28;45389;-51
2022/04/04 04:07:18;;;;;;;;;16.50;14.00;;;;;5.62;50.83;101532.59;5056162;28;45424;-47
2022/04/04 04:09:43;;;;;;;;;13.00;11.20;;;;;5.54;50.99;101531.53;5056218;28;45463;-52
2022/04/04 04:12:11;;;;;;;;;10.75;10.75;;;;;5.56;51.09;101534.13;5056329;28;45327;-47
2022/04/04 04:14:37;;;;;;;;;13.80;10.80;;;;;5.58;50.87;101526.63;5055663;28;46037;-49
2022/04/04 04:17:03;;;;;;;;;23.20;16.40;;;;;5.52;51.20;101522.69;5056123;28;45342;-49
2022/04/04 04:22:13;;;;;;;;;11.50;10.00;;;;;5.34;52.49;101519.13;5055210;28;45530;-48
2022/04/04 04:24:39;;;;;;;;;14.80;14.80;;;;;5.07;52.28;101474.69;5055469;28;45507;-46
2022/04/04 04:27:04;;;;;;;;;14.50;13.00;;;;;5.39;51.97;101517.63;5055881;28;45416;-50
2022/04/04 04:29:30;;;;;;;;;16.50;14.00;;;;;5.43;51.79;101513.59;5037783;28;45293;-52
2022/04/04 04:31:55;;;;;;;;;17.00;16.00;;;;;5.47;51.72;101508.69;5038074;28;45309;-47
2022/04/04 04:34:21;;;;;;;;;16.50;14.50;;;;;5.49;52.03;101509.38;5054151;28;48089;-47
2022/04/04 04:36:46;;;;;;;;;18.25;13.00;;;;;5.49;50.93;101509.38;5037489;28;45432;-47
2022/04/04 04:39:12;;;;;;;;;18.00;13.25;;;;;5.50;51.85;101513.78;5037891;28;45468;-49
2022/04/04 04:41:37;;;;;;;;;17.00;13.25;;;;;5.49;51.30;101501.19;5056177;28;45429;-52
2022/04/04 04:44:05;;;;;;;;;13.50;12.50;;;;;5.47;51.05;101495.06;5055591;28;46587;-47
2022/04/04 04:46:31;;;;;;;;;18.80;13.80;;;;;5.48;51.65;101493.19;5037495;28;45406;-53
2022/04/04 04:48:57;;;;;;;;;15.80;12.60;;;;;5.45;51.05;101491.66;5054289;28;45347;-52
2022/04/04 04:51:22;;;;;;;;;13.50;13.50;;;;;5.49;51.56;101501.19;5038127;28;45481;-49
2022/04/04 04:53:48;;;;;;;;;13.25;12.75;;;;;5.52;50.64;101500.03;5021574;28;45409;-50
2022/04/04 04:56:14;;;;;;;;;10.75;10.75;;;;;5.50;51.28;101492.00;5055588;28;45924;-48
2022/04/04 04:58:39;;;;;;;;;17.25;13.75;;;;;4.89;51.59;101396.66;5085170;27;45399;-50
2022/04/04 05:01:06;;;;;;;;;12.20;12.20;;;;;5.42;50.61;101490.13;5055163;28;45570;-49
2022/04/04 05:03:33;;;;;;;;;14.00;11.00;;;;;5.48;51.00;101496.78;5055470;28;46449;-50
2022/04/04 05:05:59;;;;;;;;;15.20;13.60;;;;;5.46;50.60;101490.66;5087206;27;45327;-50
2022/04/04 05:08:24;;;;;;;;;9.25;9.25;;;;;5.47;50.74;101492.34;5054184;28;45371;-51
2022/04/04 05:10:51;;;;;;;;;15.00;12.25;;;;;5.40;50.91;101481.22;5056782;28;45340;-49
2022/04/04 05:13:17;;;;;;;;;11.60;11.20;;;;;5.48;51.40;101494.06;5061651;28;46359;-47
2022/04/04 05:15:44;;;;;;;;;12.80;12.00;;;;;5.49;51.36;101492.19;5061885;28;45469;-48
2022/04/04 05:18:10;;;;;;;;;11.80;11.80;;;;;5.53;51.37;101499.00;5060867;28;45362;-51
2022/04/04 05:20:35;;;;;;;;;9.25;9.25;;;;;5.36;50.86;101474.41;5062239;28;45358;-49
2022/04/04 05:23:01;;;;;;;;;13.75;10.00;;;;;5.52;50.90;101502.75;5060562;28;45956;-49
2022/04/04 05:25:26;;;;;;;;;27.50;25.50;;;;;5.33;51.20;101492.94;5060296;28;45330;-52
2022/04/04 05:27:52;;;;;;;;;16.75;13.50;;;;;5.40;51.84;101503.00;5077496;28;45467;-50
2022/04/04 05:30:18;;;;;;;;;13.50;12.50;;;;;5.42;50.79;101495.56;5061920;28;45784;-49
2022/04/04 05:32:43;;;;;;;;;13.00;12.00;;;;;5.44;51.43;101498.09;5061606;28;45610;-51
2022/04/04 05:35:09;;;;;;;;;17.75;12.50;;;;;5.43;51.55;101493.66;5077359;28;45417;-49
2022/04/04 05:37:35;;;;;;;;;11.00;10.00;;;;;5.45;50.83;101494.38;5061612;28;45790;-51
2022/04/04 05:40:01;;;;;;;;;13.25;12.75;;;;;5.42;51.14;101501.00;5061898;28;45636;-48
2022/04/04 05:42:28;;;;;;;;;14.80;12.00;;;;;5.42;50.82;101498.28;5060068;28;46403;-49
2022/04/04 05:44:54;;;;;;;;;10.00;10.00;;;;;5.39;51.76;101489.56;5061428;28;45353;-49
2022/04/04 05:47:20;;;;;;;;;10.50;10.00;;;;;5.42;51.49;101490.13;5061425;28;45448;-48
2022/04/04 05:49:48;;;;;;;;;13.60;12.20;;;;;5.45;51.57;101499.84;5061511;28;45423;-49
2022/04/04 05:52:15;;;;;;;;;14.00;10.00;;;;;5.45;51.57;101488.94;5061201;28;46102;-48
2022/04/04 05:54:53;;;;;;;;;10.00;8.80;;;;;5.43;50.99;101491.81;5043776;28;45354;-53
2022/04/04 05:57:21;;;;;;;;;13.20;13.20;;;;;5.45;51.59;101496.25;5058040;28;45356;-47
2022/04/04 05:59:46;;;;;;;;;13.40;13.40;;;;;5.47;50.49;101495.06;5041597;28;45686;-47
2022/04/04 06:02:13;;;;;;;;;15.00;11.50;;;;;5.23;50.78;101458.47;5060955;28;46735;-47
2022/04/04 06:04:38;;;;;;;;;12.60;11.20;;;;;5.40;50.92;101491.28;5061271;28;45344;-48
2022/04/04 06:07:04;;;;;;;;;12.50;9.50;;;;;5.40;51.55;101491.28;5061444;28;45389;-49
2022/04/04 06:09:29;;;;;;;;;13.00;10.00;;;;;5.37;50.68;101488.84;5061648;28;45270;-51
2022/04/04 06:11:55;;;;;;;;;13.00;13.00;;;;;5.37;51.69;101487.00;5061045;28;46702;-46
2022/04/04 06:14:20;;;;;;;;;15.75;14.00;;;;;5.31;51.25;101481.31;5076644;28;45283;-48
2022/04/04 06:16:46;;;;;;;;;12.50;12.50;;;;;5.36;50.59;101479.84;5076911;28;45304;-47
2022/04/04 06:19:11;;;;;;;;;12.50;9.50;;;;;5.40;50.95;101485.84;5061626;28;45197;-47
2022/04/04 06:21:37;;;;;;;;;12.75;9.50;;;;;5.41;50.77;101477.50;5060877;28;45351;-51
2022/04/04 06:24:02;;;;;;;;;13.50;11.50;;;;;5.47;51.31;101473.28;5039009;28;45295;-49
2022/04/04 06:26:30;;;;;;;;;12.50;12.25;;;;;5.48;51.07;101485.88;5057461;28;45624;-49
2022/04/04 06:28:56;;;;;;;;;16.20;10.80;;;;;5.49;51.38;101478.59;5073211;28;45498;-50
2022/04/04 06:31:21;;;;;;;;;16.25;16.25;;;;;5.49;51.09;101463.09;5057575;28;45717;-50
2022/04/04 06:33:47;;;;;;;;;15.50;14.25;;;;;5.42;50.33;101462.88;5039715;28;45402;-50
2022/04/04 06:36:13;;;;;;;;;12.40;12.40;;;;;5.31;50.98;101440.50;5057643;28;45382;-50
2022/04/04 06:38:39;;;;;;;;;9.50;8.50;;;;;5.59;50.37;101473.03;5057672;28;45646;-51
2022/04/04 06:41:04;;;;;;;;;11.00;10.00;;;;;5.36;50.50;101440.88;5057191;28;46131;-52
2022/04/04 06:43:30;;;;;;;;;17.25;11.50;;;;;5.56;49.66;101463.31;5073352;28;45350;-50
2022/04/04 06:45:55;;;;;;;;;9.25;9.25;;;;;5.54;49.52;101454.41;5057486;28;45385;-47
2022/04/04 06:48:22;;;;;;;;;10.75;8.25;;;;;5.59;48.89;101467.59;5057784;28;46056;-47
2022/04/04 06:50:47;;;;;;;;;9.80;8.80;;;;;5.28;49.23;101415.31;5039011;28;45519;-48
2022/04/04 06:53:13;;;;;;;;;9.25;9.25;;;;;5.66;48.59;101474.09;5073208;28;45361;-50
2022/04/04 06:55:39;;;;;;;;;11.00;11.00;;;;;5.67;47.85;101470.34;5056008;28;45384;-53
2022/04/04 06:58:05;;;;;;;;;8.40;8.40;;;;;5.61;48.17;101473.72;5057276;28;45773;-52
2022/04/04 07:00:31;;;;;;;;;6.60;6.60;;;;;5.36;47.00;101419.97;5028576;28;45732;-49
2022/04/04 07:02:58;;;;;;;;;10.00;10.00;;;;;5.72;47.25;101468.00;5026103;28;45466;-48
2022/04/04 07:05:24;;;;;;;;;7.60;6.40;;;;;5.75;46.81;101462.22;5034135;28;45319;-47
2022/04/04 07:07:49;;;;;;;;;5.00;5.00;;;;;5.70;46.42;101457.25;5037253;28;45367;-47
2022/04/04 07:10:15;;;;;;;;;7.00;5.00;;;;;5.67;46.44;101460.28;5035328;28;46526;-47
2022/04/04 07:12:41;;;;;;;;;5.00;5.00;;;;;5.75;46.05;101462.22;5019091;28;45765;-50
2022/04/04 07:15:08;;;;;;;;;6.00;4.40;;;;;5.75;44.82;101448.59;5036687;28;45338;-49
2022/04/04 07:17:33;;;;;;;;;6.40;6.40;;;;;5.68;44.85;101448.41;5035904;28;45354;-49
2022/04/04 07:19:59;;;;;;;;;11.75;6.25;;;;;5.67;44.91;101438.50;5051865;28;46552;-50
2022/04/04 07:22:25;;;;;;;;;8.00;5.25;;;;;5.65;45.46;101426.91;5036374;28;45663;-54
2022/04/04 07:24:50;;;;;;;;;6.60;5.80;;;;;5.83;45.68;101445.06;5035524;28;45410;-50
2022/04/04 07:27:16;;;;;;;;;6.25;5.25;;;;;5.83;44.71;101440.44;5036610;28;45831;-51
2022/04/04 07:29:42;;;;;;;;;7.75;6.00;;;;;5.89;45.29;101440.81;5049546;28;46499;-49
2022/04/04 07:32:09;;;;;;;;;8.25;8.25;;;;;5.83;45.71;101426.81;5056252;28;45932;-51
2022/04/04 07:34:35;;;;;;;;;8.60;8.60;;;;;5.92;45.26;101437.78;5038571;28;45439;-50
2022/04/04 07:37:01;;;;;;;;;9.80;7.80;;;;;5.91;46.03;101433.31;5038842;28;45576;-51
2022/04/04 07:39:26;;;;;;;;;7.50;5.75;;;;;5.95;45.44;101424.69;5056041;28;46200;-51
2022/04/04 07:41:52;;;;;;;;;7.00;7.00;;;;;6.05;45.68;101419.13;5056343;28;45367;-49
2022/04/04 07:44:18;;;;;;;;;11.20;9.00;;;;;6.13;45.41;101420.16;5038675;28;45314;-48
2022/04/04 07:46:43;;;;;;;;;12.00;10.00;;;;;6.13;45.14;101418.28;5056444;28;46011;-47
2022/04/04 07:49:09;;;;;;;;;9.00;6.00;;;;;6.05;44.79;101405.50;5056197;28;46168;-50
2022/04/04 07:51:35;;;;;;;;;7.00;7.00;;;;;6.12;45.10;101415.75;5038055;28;45393;-51
2022/04/04 07:54:00;;;;;;;;;9.50;9.00;;;;;6.09;44.86;101415.03;5038618;28;45597;-48
2022/04/04 07:56:26;;;;;;;;;9.00;9.00;;;;;6.07;45.36;101394.41;5056527;28;45397;-53
2022/04/04 07:58:51;;;;;;;;;12.75;12.25;;;;;6.17;45.16;101416.06;5054025;28;45619;-52
2022/04/04 08:01:17;;;;;;;;;8.00;6.00;;;;;6.22;45.49;101410.97;5054966;28;45481;-49
2022/04/04 08:03:42;;;;;;;;;14.75;11.25;;;;;6.23;45.51;101391.75;5055009;28;45520;-52
2022/04/04 08:06:08;;;;;;;;;9.25;9.25;;;;;6.29;45.74;101373.84;5072129;28;45594;-50
2022/04/04 08:08:34;;;;;;;;;9.00;6.75;;;;;6.45;44.95;101408.47;5072137;28;46744;-50
2022/04/04 08:11:01;;;;;;;;;8.50;6.25;;;;;6.36;44.75;101395.84;5067783;28;45532;-50
2022/04/04 08:13:26;;;;;;;;;6.00;6.00;;;;;6.35;44.95;101388.69;5067022;28;45391;-48
2022/04/04 08:15:53;;;;;;;;;10.00;7.25;;;;;6.45;45.01;101397.56;5035709;28;45282;-47
2022/04/04 08:18:18;;;;;;;;;0.00;0.00;;;;;6.51;44.90;101396.88;5047043;28;46695;-49
2022/04/04 08:20:44;;;;;;;;;4.00;4.00;;;;;6.51;44.02;101390.56;5055093;28;45500;-49
2022/04/04 08:23:09;;;;;;;;;5.00;5.00;;;;;6.52;43.73;101386.84;5054792;28;45908;-52
2022/04/04 08:25:35;;;;;;;;;7.50;5.25;;;;;6.39;44.01;101386.50;5056382;28;45371;-49
2022/04/04 08:28:01;;;;;;;;;3.20;3.20;;;;;6.50;43.87;101381.53;4965310;28;46918;-49
2022/04/04 08:30:27;;;;;;;;;5.50;3.00;;;;;6.26;43.44;101330.56;5034565;28;45511;-52
2022/04/04 08:32:52;;;;;;;;;6.25;5.00;;;;;6.58;43.46;101374.38;5034640;28;45400;-52
2022/04/04 08:35:18;;;;;;;;;3.25;3.25;;;;;6.70;44.10;101374.91;5051400;28;45426;-47
2022/04/04 08:37:45;;;;;;;;;3.25;3.25;;;;;6.78;43.27;101373.03;5035546;28;45973;-51
2022/04/04 08:40:11;;;;;;;;;7.20;7.20;;;;;6.69;43.23;101349.50;5051819;28;45407;-49
2022/04/04 08:42:37;;;;;;;;;6.80;5.40;;;;;6.76;43.25;101350.53;5018081;28;45358;-49
2022/04/04 08:45:04;;;;;;;;;6.40;6.40;;;;;6.95;43.27;101363.97;5034842;28;45940;-50
2022/04/04 08:47:29;;;;;;;;;6.00;5.00;;;;;7.00;43.55;101358.84;5034849;28;47218;-47
2022/04/04 08:49:55;;;;;;;;;6.25;5.00;;;;;6.97;43.15;101357.31;5067855;28;45456;-52
2022/04/04 08:52:21;;;;;;;;;9.25;5.25;;;;;7.03;42.79;101356.63;5035651;28;45413;-48
2022/04/04 08:54:47;;;;;;;;;8.00;5.75;;;;;7.15;42.98;101357.09;5068552;28;45593;-50
2022/04/04 08:57:13;;;;;;;;;5.20;5.20;;;;;7.23;42.45;101355.38;5034003;28;47486;-51
2022/04/04 08:59:39;;;;;;;;;6.80;6.20;;;;;7.29;41.68;101351.94;5035261;28;45281;-47
2022/04/04 09:02:05;;;;;;;;;8.50;7.50;;;;;7.35;42.75;101347.69;5034070;28;45284;-51
2022/04/04 09:04:33;;;;;;;;;3.00;1.75;;;;;7.46;41.75;101344.53;5053257;28;45341;-48
2022/04/04 09:07:03;;;;;;;;;5.00;5.00;;;;;7.60;41.94;101332.03;5055250;28;45337;-50
2022/04/04 09:09:47;;;;;;;;;1.40;1.40;;;;;7.49;40.14;101318.75;5057260;27;46751;-47
2022/04/04 09:12:14;;;;;;;;;2.60;2.60;;;;;7.49;40.68;101303.25;5039680;28;45627;-49
2022/04/04 09:14:53;;;;;;;;;4.60;2.40;;;;;7.83;40.28;101347.63;5048292;28;45409;-48
2022/04/04 09:17:27;;;;;;;;;4.60;3.00;;;;;7.87;39.63;101318.91;5050631;28;45671;-49
2022/04/04 09:19:53;;;;;;;;;1.80;1.80;;;;;8.07;38.64;101330.22;5080251;27;45499;-50
2022/04/04 09:22:19;;;;;;;;;1.50;1.50;;;;;8.14;37.76;101330.38;5032587;28;45908;-47
2022/04/04 09:24:58;;;;;;;;;2.80;2.80;;;;;7.99;38.67;101303.81;5050681;28;45961;-46
2022/04/04 09:27:31;;;;;;;;;4.60;2.80;;;;;8.28;38.99;101320.53;5019581;28;45807;-48
2022/04/04 09:29:58;;;;;;;;;2.00;2.00;;;;;8.18;38.44;101277.03;5049635;28;45451;-52
2022/04/04 09:32:44;;;;;;;;;2.00;2.00;;;;;8.37;38.25;101307.63;5049556;28;45394;-49
2022/04/04 09:35:13;;;;;;;;;5.20;3.80;;;;;8.41;37.24;101307.09;5049295;28;45401;-48
2022/04/04 09:37:43;;;;;;;;;1.00;1.00;;;;;8.36;36.08;101311.41;5049277;28;46169;-48
2022/04/04 09:40:19;;;;;;;;;3.40;2.00;;;;;8.38;35.60;101303.88;5050785;28;45758;-49
2022/04/04 09:42:51;;;;;;;;;1.80;1.80;;;;;8.46;36.28;101298.34;5066599;28;45393;-49
2022/04/04 09:45:17;;;;;;;;;1.80;1.80;;;;;8.61;36.53;101294.81;5049823;28;45616;-51
2022/04/04 09:47:48;;;;;;;;;2.00;1.00;;;;;8.72;36.04;101291.63;5082789;27;46236;-52
2022/04/04 09:50:30;;;;;;;;;1.40;1.40;;;;;8.51;35.49;101251.25;5050828;28;45395;-49
2022/04/04 09:52:57;;;;;;;;;5.00;1.00;;;;;8.69;35.46;101294.72;5050804;28;45401;-51
2022/04/04 09:55:33;;;;;;;;;0.40;0.40;;;;;8.40;34.04;101253.41;5050550;28;45625;-49
2022/04/04 09:58:00;;;;;;;;;1.80;1.00;;;;;8.35;34.12;101250.38;5048254;28;46927;-51
2022/04/04 10:00:26;;;;;;;;;2.00;2.00;;;;;8.62;34.22;101280.09;5050895;28;45522;-51
2022/04/04 10:02:54;;;;;;;;;1.60;0.60;;;;;8.60;34.38;101272.06;5050736;28;45990;-51
2022/04/04 10:05:20;;;;;;;;;5.00;3.00;;;;;8.81;34.75;101275.97;5053642;28;45674;-50
2022/04/04 10:07:45;;;;;;;;;1.50;1.50;;;;;8.87;34.62;101271.63;5050493;28;47133;-49
2022/04/04 10:10:11;;;;;;;;;8.00;6.75;;;;;8.70;34.42;101244.41;5030867;28;45509;-50
2022/04/04 10:12:36;;;;;;;;;4.50;4.50;;;;;8.99;34.28;101280.22;5050451;28;45515;-49
2022/04/04 10:15:03;;;;;;;;;1.50;1.50;;;;;8.99;35.19;101270.13;5052502;28;45885;-48
2022/04/04 10:17:29;;;;;;;;;2.40;1.40;;;;;9.09;34.33;101267.94;5051836;28;46297;-48
2022/04/04 10:19:55;;;;;;;;;8.00;2.40;;;;;9.24;34.74;101255.28;5053486;28;45491;-49
2022/04/04 10:22:21;;;;;;;;;4.20;1.60;;;;;9.39;34.47;101252.53;5052338;28;45876;-50
2022/04/04 10:24:46;;;;;;;;;1.50;1.50;;;;;9.60;35.21;101257.19;5053283;28;45488;-50
2022/04/04 10:27:13;;;;;;;;;2.75;1.75;;;;;9.70;34.45;101246.78;5035125;28;47055;-51
2022/04/04 10:29:40;;;;;;;;;4.00;1.00;;;;;9.84;35.78;101228.59;5043808;28;45557;-51
2022/04/04 10:32:06;;;;;;;;;2.60;2.60;;;;;9.94;34.50;101236.50;5051622;28;45499;-52
2022/04/04 10:34:32;;;;;;;;;1.00;1.00;;;;;9.76;34.04;101206.78;5067552;27;45689;-51
2022/04/04 10:36:59;;;;;;;;;1.80;0.80;;;;;9.93;33.12;101192.81;5067914;27;45721;-51
2022/04/04 10:39:47;;;;;;;;;2.80;2.00;;;;;10.31;32.64;101215.28;5053123;28;45463;-48
2022/04/04 10:42:32;;;;;;;;;2.60;2.40;;;;;10.20;33.03;101176.59;5050436;28;45590;-50
2022/04/04 10:45:05;;;;;;;;;2.40;2.40;;;;;10.52;31.86;101219.06;5050486;28;45465;-50
2022/04/04 10:47:30;;;;;;;;;2.00;1.00;;;;;10.59;32.63;101210.91;5051752;28;45598;-49
2022/04/04 10:50:29;;;;;;;;;4.75;2.00;;;;;10.70;32.20;101213.09;5071636;28;45432;-54
2022/04/04 10:52:58;;;;;;;;;1.20;1.20;;;;;10.80;30.88;101212.72;5060472;28;45499;-51
2022/04/04 10:55:27;;;;;;;;;5.20;3.60;;;;;10.92;30.86;101210.25;5057267;28;45340;-53
2022/04/04 10:58:15;;;;;;;;;2.00;2.00;;;;;10.95;31.92;101201.59;5027315;28;46848;-48
2022/04/04 11:01:07;;;;;;;;;2.00;2.00;;;;;10.97;30.32;101193.16;5038148;28;45470;-52
2022/04/04 11:03:34;;;;;;;;;3.00;3.00;;;;;10.73;31.48;101125.88;5054771;28;45580;-53
2022/04/04 11:09:16;;;;;;;;;1.40;1.40;;;;;11.22;31.09;101179.72;5039449;28;45375;-50
2022/04/04 11:11:46;;;;;;;;;4.80;2.40;;;;;11.28;31.81;101177.22;5056473;28;45389;-48
2022/04/04 11:14:12;;;;;;;;;2.80;2.80;;;;;11.41;31.03;101177.25;5055200;28;45498;-49
2022/04/04 11:17:09;;;;;;;;;3.00;3.00;;;;;11.39;30.92;101171.13;5052826;28;45426;-52
2022/04/04 11:20:00;;;;;;;;;5.80;2.20;;;;;11.41;31.22;101152.53;5050468;28;46473;-47
2022/04/04 11:22:27;;;;;;;;;3.00;3.00;;;;;11.28;30.32;101125.00;5056083;28;45503;-52
2022/04/04 11:24:55;;;;;;;;;4.60;3.40;;;;;11.50;31.58;101139.44;5054689;28;45604;-51
2022/04/04 11:27:21;;;;;;;;;2.00;1.80;;;;;11.61;31.13;101152.59;5056383;28;45431;-50
2022/04/04 11:29:47;;;;;;;;;2.00;2.00;;;;;11.71;30.76;101151.31;5056434;28;45494;-51
2022/04/04 11:32:16;;;;;;;;;3.00;3.00;;;;;11.71;31.52;101149.44;5056431;28;45440;-52